createdAt,value
2022-10-22T00:01:02.549Z,97589.63
2022-10-22T00:03:29.186Z,97587.28
2022-10-22T00:05:55.842Z,97593.22
2022-10-22T00:08:22.479Z,97590.69
2022-10-22T00:10:49.234Z,97597.63
2022-10-22T00:13:16.176Z,97593.19
2022-10-22T00:15:42.745Z,97596.22
2022-10-22T00:18:09.322Z,97604.13
2022-10-22T00:20:35.874Z,97602.34
2022-10-22T00:23:02.480Z,97607.03
2022-10-22T00:25:29.147Z,97596.25
2022-10-22T00:27:55.717Z,97607.72
2022-10-22T00:30:22.357Z,97593.06
2022-10-22T00:32:48.922Z,97612.28
2022-10-22T00:35:15.558Z,97609.84
2022-10-22T00:37:42.145Z,97609.13
2022-10-22T00:40:09.660Z,97603.06
2022-10-22T00:42:36.311Z,97594.59
2022-10-22T00:45:02.857Z,97592.41
2022-10-22T00:47:37.043Z,97579.66
2022-10-22T00:50:06.920Z,97591.84
2022-10-22T00:52:33.792Z,97591.84
2022-10-22T00:55:01.197Z,97589.34
2022-10-22T00:57:28.192Z,97586.03
2022-10-22T00:59:56.677Z,97579.25
2022-10-22T01:02:23.718Z,97578.56
2022-10-22T01:04:50.311Z,97593.50
2022-10-22T01:07:20.264Z,97587.44
2022-10-22T01:10:11.253Z,97589.38
2022-10-22T01:12:49.656Z,97579.28
2022-10-22T01:15:53.857Z,97571.38
2022-10-22T01:18:27.489Z,97572.09
2022-10-22T01:21:08.132Z,97563.81
2022-10-22T01:23:46.696Z,97570.44
2022-10-22T01:26:25.788Z,97555.09
2022-10-22T01:29:13.206Z,97551.38
2022-10-22T01:31:45.149Z,97542.09
2022-10-22T01:34:16.052Z,97559.66
2022-10-22T01:36:43.898Z,97539.75
2022-10-22T01:39:12.560Z,97539.88
2022-10-22T01:41:40.286Z,97529.97
2022-10-22T01:44:06.844Z,97542.25
2022-10-22T01:46:33.534Z,97522.22
2022-10-22T01:49:12.766Z,97522.50
2022-10-22T01:52:00.905Z,97514.47
2022-10-22T01:54:56.549Z,97507.84
2022-10-22T01:58:04.779Z,97510.03
2022-10-22T02:00:31.728Z,97493.06
2022-10-22T02:03:12.202Z,97496.38
2022-10-22T02:05:49.378Z,97486.00
2022-10-22T02:08:20.584Z,97492.50
2022-10-22T02:10:48.592Z,97477.56
2022-10-22T02:13:22.939Z,97487.13
2022-10-22T02:15:51.607Z,97497.88
2022-10-22T02:18:22.266Z,97482.41
2022-10-22T02:20:49.604Z,97489.47
2022-10-22T02:23:16.601Z,97501.88
2022-10-22T02:25:49.402Z,97494.84
2022-10-22T02:28:34.764Z,97486.56
2022-10-22T02:31:10.625Z,97495.00
2022-10-22T02:33:46.091Z,97486.72
2022-10-22T02:36:14.818Z,97495.41
2022-10-22T02:38:42.139Z,97497.88
2022-10-22T02:41:09.459Z,97473.13
2022-10-22T02:43:42.673Z,97480.88
2022-10-22T02:46:11.015Z,97465.84
2022-10-22T02:48:37.816Z,97468.59
2022-10-22T02:51:04.443Z,97467.78
2022-10-22T02:53:31.253Z,97469.97
2022-10-22T02:55:58.286Z,97470.94
2022-10-22T02:58:24.922Z,97473.56
2022-10-22T03:00:51.792Z,97478.38
2022-10-22T03:03:18.577Z,97475.75
2022-10-22T03:05:45.192Z,97454.34
2022-10-22T03:08:11.825Z,97458.91
2022-10-22T03:10:38.375Z,97464.84
2022-10-22T03:13:05.009Z,97457.81
2022-10-22T03:15:31.554Z,97439.56
2022-10-22T03:17:58.130Z,97445.09
2022-10-22T03:20:24.693Z,97444.13
2022-10-22T03:22:51.409Z,97436.53
2022-10-22T03:25:22.177Z,97445.59
2022-10-22T03:27:51.392Z,97447.56
2022-10-22T03:30:18.798Z,97452.22
2022-10-22T03:32:45.546Z,97452.09
2022-10-22T03:35:12.115Z,97456.66
2022-10-22T03:37:39.810Z,97450.28
2022-10-22T03:40:08.360Z,97451.41
2022-10-22T03:42:35.309Z,97442.72
2022-10-22T03:45:01.884Z,97451.66
2022-10-22T03:47:28.633Z,97454.44
2022-10-22T03:49:55.206Z,97459.13
2022-10-22T03:52:21.830Z,97460.22
2022-10-22T03:54:48.395Z,97453.59
2022-10-22T03:57:15.067Z,97459.09
2022-10-22T03:59:43.797Z,97453.72
2022-10-22T04:02:12.704Z,97452.22
2022-10-22T04:04:39.342Z,97463.09
2022-10-22T04:07:07.211Z,97459.78
2022-10-22T04:09:34.967Z,97454.66
2022-10-22T04:12:02.086Z,97460.59
2022-10-22T04:14:28.687Z,97454.94
2022-10-22T04:16:55.306Z,97469.03
2022-10-22T04:19:22.057Z,97469.16
2022-10-22T04:21:48.614Z,97456.44
2022-10-22T04:24:15.538Z,97469.44
2022-10-22T04:26:42.369Z,97472.88
2022-10-22T04:29:11.981Z,97461.28
2022-10-22T04:31:41.885Z,97474.28
2022-10-22T04:34:08.540Z,97472.47
2022-10-22T04:36:35.174Z,97478.53
2022-10-22T04:39:02.505Z,97478.94
2022-10-22T04:41:31.855Z,97470.94
2022-10-22T04:43:59.529Z,97471.19
2022-10-22T04:46:28.632Z,97460.72
2022-10-22T04:48:55.522Z,97471.34
2022-10-22T04:51:24.082Z,97481.38
2022-10-22T04:53:51.398Z,97481.53
2022-10-22T04:56:21.789Z,97459.16
2022-10-22T04:58:55.830Z,97465.38
2022-10-22T05:01:27.812Z,97463.31
2022-10-22T05:03:56.042Z,97458.47
2022-10-22T05:06:23.885Z,97450.47
2022-10-22T05:09:00.948Z,97450.47
2022-10-22T05:11:38.355Z,97454.91
2022-10-22T05:14:06.345Z,97450.75
2022-10-22T05:16:34.370Z,97448.25
2022-10-22T05:19:02.726Z,97446.31
2022-10-22T05:21:29.558Z,97445.78
2022-10-22T05:23:59.939Z,97454.09
2022-10-22T05:26:28.448Z,97429.25
2022-10-22T05:28:55.265Z,97439.72
2022-10-22T05:31:22.001Z,97438.22
2022-10-22T05:33:48.935Z,97450.78
2022-10-22T05:36:18.685Z,97440.28
2022-10-22T05:38:45.762Z,97451.59
2022-10-22T05:41:23.674Z,97446.91
2022-10-22T05:43:51.499Z,97457.75
2022-10-22T05:46:22.712Z,97458.03
2022-10-22T05:48:59.758Z,97461.91
2022-10-22T05:51:28.470Z,97466.31
2022-10-22T05:54:04.006Z,97464.94
2022-10-22T05:56:32.037Z,97461.34
2022-10-22T05:58:59.213Z,97470.63
2022-10-22T06:01:31.575Z,97476.28
2022-10-22T06:04:04.290Z,97469.94
2022-10-22T06:06:35.212Z,97469.41
2022-10-22T06:09:22.266Z,97474.13
2022-10-22T06:11:49.360Z,97471.78
2022-10-22T06:14:16.883Z,97477.97
2022-10-22T06:16:43.687Z,97471.09
2022-10-22T06:19:12.788Z,97481.72
2022-10-22T06:21:39.674Z,97467.47
2022-10-22T06:24:06.845Z,97468.28
2022-10-22T06:26:33.515Z,97469.38
2022-10-22T06:29:00.368Z,97468.84
2022-10-22T06:31:27.349Z,97480.16
2022-10-22T06:33:54.159Z,97475.47
2022-10-22T06:36:23.050Z,97482.22
2022-10-22T06:38:54.290Z,97497.28
2022-10-22T06:41:24.296Z,97496.72
2022-10-22T06:43:54.163Z,97497.81
2022-10-22T06:46:22.172Z,97514.38
2022-10-22T06:48:50.940Z,97515.91
2022-10-22T06:51:18.259Z,97522.94
2022-10-22T06:53:45.117Z,97524.56
2022-10-22T06:56:14.426Z,97509.72
2022-10-22T06:58:41.594Z,97509.81
2022-10-22T07:01:10.804Z,97524.59
2022-10-22T07:03:38.386Z,97512.81
2022-10-22T07:06:07.688Z,97531.03
2022-10-22T07:08:34.709Z,97535.84
2022-10-22T07:11:19.068Z,97530.97
2022-10-22T07:13:46.105Z,97539.09
2022-10-22T07:16:13.081Z,97533.84
2022-10-22T07:18:41.502Z,97530.66
2022-10-22T07:21:09.961Z,97544.81
2022-10-22T07:23:36.985Z,97552.53
2022-10-22T07:26:04.527Z,97550.72
2022-10-22T07:28:32.490Z,97551.81
2022-10-22T07:31:00.018Z,97537.75
2022-10-22T07:33:27.026Z,97548.47
2022-10-22T07:36:04.937Z,97547.56
2022-10-22T07:38:31.971Z,97555.22
2022-10-22T07:40:59.325Z,97551.91
2022-10-22T07:43:26.583Z,97553.59
2022-10-22T07:45:53.212Z,97561.34
2022-10-22T07:48:19.762Z,97567.72
2022-10-22T07:50:46.338Z,97561.34
2022-10-22T07:53:12.989Z,97564.66
2022-10-22T07:55:39.598Z,97570.75
2022-10-22T07:58:06.294Z,97583.94
2022-10-22T08:00:33.034Z,97594.53
2022-10-22T08:03:00.000Z,97600.50
2022-10-22T08:05:26.567Z,97618.56
2022-10-22T08:07:53.210Z,97621.88
2022-10-22T08:10:19.882Z,97621.78
2022-10-22T08:12:47.680Z,97639.28
2022-10-22T08:15:15.068Z,97649.25
2022-10-22T08:17:42.055Z,97651.75
2022-10-22T08:20:09.361Z,97645.06
2022-10-22T08:22:36.008Z,97650.25
2022-10-22T08:25:02.694Z,97656.31
2022-10-22T08:27:29.275Z,97653.94
2022-10-22T08:29:55.844Z,97657.13
2022-10-22T08:32:22.522Z,97657.28
2022-10-22T08:34:49.274Z,97661.97
2022-10-22T08:37:17.124Z,97659.84
2022-10-22T08:39:44.571Z,97654.97
2022-10-22T08:42:33.049Z,97653.28
2022-10-22T08:45:12.903Z,97656.59
2022-10-22T08:48:07.690Z,97647.56
2022-10-22T08:50:41.753Z,97648.97
2022-10-22T08:53:15.385Z,97642.44
2022-10-22T08:55:42.543Z,97651.38
2022-10-22T08:58:20.196Z,97666.06
2022-10-22T09:00:56.527Z,97655.38
2022-10-22T09:03:36.090Z,97652.00
2022-10-22T09:06:27.426Z,97651.63
2022-10-22T09:08:56.510Z,97654.69
2022-10-22T09:11:37.037Z,97647.50
2022-10-22T09:14:05.092Z,97657.00
2022-10-22T09:17:09.726Z,97655.06
2022-10-22T09:20:09.818Z,97662.78
2022-10-22T09:22:48.310Z,97658.03
2022-10-22T09:25:27.345Z,97658.72
2022-10-22T09:27:58.405Z,97653.78
2022-10-22T09:30:31.076Z,97654.00
2022-10-22T09:33:10.687Z,97659.63
2022-10-22T09:35:53.666Z,97680.28
2022-10-22T09:38:21.825Z,97686.53
2022-10-22T09:40:51.338Z,97683.91
2022-10-22T09:43:18.637Z,97680.41
2022-10-22T09:45:46.386Z,97678.81
2022-10-22T09:48:21.463Z,97669.28
2022-10-22T09:50:50.167Z,97675.41
2022-10-22T09:53:22.673Z,97681.38
2022-10-22T09:55:53.487Z,97674.75
2022-10-22T09:58:20.828Z,97679.84
2022-10-22T10:00:57.655Z,97676.69
2022-10-22T10:03:30.990Z,97686.59
2022-10-22T10:06:03.130Z,97669.88
2022-10-22T10:08:32.848Z,97661.59
2022-10-22T10:11:05.790Z,97669.22
2022-10-22T10:14:02.261Z,97677.66
2022-10-22T10:16:53.678Z,97668.38
2022-10-22T10:19:35.756Z,97657.28
2022-10-22T10:22:53.058Z,97667.03
2022-10-22T10:25:46.379Z,97673.97
2022-10-22T10:28:27.820Z,97687.34
2022-10-22T10:31:03.094Z,97695.78
2022-10-22T10:33:59.908Z,97695.44
2022-10-22T10:36:38.368Z,97699.38
2022-10-22T10:39:37.401Z,97698.56
2022-10-22T10:42:15.228Z,97695.44
2022-10-22T10:45:11.766Z,97701.59
2022-10-22T10:47:53.487Z,97699.81
2022-10-22T10:50:23.005Z,97707.22
2022-10-22T10:53:10.586Z,97716.31
2022-10-22T10:55:59.096Z,97712.84
2022-10-22T10:58:34.327Z,97708.88
2022-10-22T11:01:20.350Z,97708.78
2022-10-22T11:03:46.999Z,97717.88
2022-10-22T11:06:20.508Z,97723.50
2022-10-22T11:08:57.855Z,97723.84
2022-10-22T11:11:36.598Z,97727.03
2022-10-22T11:14:30.052Z,97710.16
2022-10-22T11:17:04.118Z,97714.66
2022-10-22T11:19:50.187Z,97719.47
2022-10-22T11:22:26.978Z,97714.84
2022-10-22T11:25:15.607Z,97713.50
2022-10-22T11:28:05.484Z,97715.47
2022-10-22T11:30:36.270Z,97714.00
2022-10-22T11:33:11.758Z,97717.16
2022-10-22T11:35:42.443Z,97719.63
2022-10-22T11:38:15.147Z,97707.22
2022-10-22T11:40:52.649Z,97698.94
2022-10-22T11:43:30.653Z,97708.84
2022-10-22T11:46:29.198Z,97720.63
2022-10-22T11:49:16.501Z,97717.97
2022-10-22T11:51:45.122Z,97712.50
2022-10-22T11:54:53.648Z,97716.47
2022-10-22T11:57:29.020Z,97712.66
2022-10-22T12:00:00.466Z,97703.56
2022-10-22T12:02:30.708Z,97709.84
2022-10-22T12:05:22.160Z,97710.22
2022-10-22T12:07:54.500Z,97712.19
2022-10-22T12:10:25.724Z,97720.44
2022-10-22T12:12:57.002Z,97715.84
2022-10-22T12:15:27.138Z,97719.66
2022-10-22T12:18:01.186Z,97727.75
2022-10-22T12:20:28.445Z,97715.16
2022-10-22T12:22:57.323Z,97722.13
2022-10-22T12:25:26.181Z,97727.22
2022-10-22T12:27:55.559Z,97731.72
2022-10-22T12:30:25.079Z,97732.34
2022-10-22T12:32:56.854Z,97732.38
2022-10-22T12:35:32.162Z,97735.66
2022-10-22T12:38:02.010Z,97733.34
2022-10-22T12:40:42.295Z,97749.69
2022-10-22T12:43:15.542Z,97757.16
2022-10-22T12:45:45.394Z,97747.19
2022-10-22T12:48:19.440Z,97750.53
2022-10-22T12:50:52.715Z,97744.06
2022-10-22T12:53:28.906Z,97743.91
2022-10-22T12:56:00.281Z,97746.56
2022-10-22T12:58:30.061Z,97744.94
2022-10-22T13:01:01.973Z,97744.94
2022-10-22T13:03:40.428Z,97742.94
2022-10-22T13:06:19.137Z,97741.28
2022-10-22T13:08:57.211Z,97742.28
2022-10-22T13:11:23.862Z,97735.31
2022-10-22T13:13:50.457Z,97735.66
2022-10-22T13:16:24.360Z,97734.97
2022-10-22T13:18:52.597Z,97739.44
2022-10-22T13:21:34.246Z,97732.81
2022-10-22T13:24:20.943Z,97748.34
2022-10-22T13:26:55.932Z,97745.19
2022-10-22T13:29:24.104Z,97742.72
2022-10-22T13:31:53.221Z,97748.31
2022-10-22T13:34:22.759Z,97752.78
2022-10-22T13:36:49.515Z,97744.19
2022-10-22T13:39:24.077Z,97746.16
2022-10-22T13:41:51.907Z,97740.03
2022-10-22T13:44:19.648Z,97754.41
2022-10-22T13:46:47.711Z,97750.44
2022-10-22T13:49:17.805Z,97747.13
2022-10-22T13:51:44.718Z,97755.22
2022-10-22T13:54:20.994Z,97757.69
2022-10-22T13:56:47.596Z,97754.56
2022-10-22T13:59:15.346Z,97761.13
2022-10-22T14:01:44.955Z,97765.59
2022-10-22T14:04:14.805Z,97775.13
2022-10-22T14:06:41.511Z,97772.16
2022-10-22T14:09:13.902Z,97775.47
2022-10-22T14:11:40.768Z,97786.19
2022-10-22T14:14:09.165Z,97783.69
2022-10-22T14:16:37.436Z,97797.72
2022-10-22T14:19:07.390Z,97800.53
2022-10-22T14:21:37.232Z,97802.19
2022-10-22T14:24:06.048Z,97799.03
2022-10-22T14:26:35.228Z,97805.31
2022-10-22T14:29:11.081Z,97807.28
2022-10-22T14:31:44.145Z,97819.00
2022-10-22T14:34:13.944Z,97814.53
2022-10-22T14:36:43.477Z,97802.84
2022-10-22T14:39:10.242Z,97790.09
2022-10-22T14:41:37.483Z,97799.53
2022-10-22T14:44:04.274Z,97800.19
2022-10-22T14:46:30.940Z,97818.16
2022-10-22T14:48:57.516Z,97823.31
2022-10-22T14:51:24.147Z,97826.63
2022-10-22T14:53:50.879Z,97819.00
2022-10-22T14:56:22.744Z,97823.59
2022-10-22T14:58:49.881Z,97822.31
2022-10-22T15:01:16.750Z,97832.88
2022-10-22T15:03:43.378Z,97834.56
2022-10-22T15:06:09.990Z,97834.84
2022-10-22T15:08:36.642Z,97843.78
2022-10-22T15:11:06.505Z,97844.75
2022-10-22T15:13:33.802Z,97845.88
2022-10-22T15:16:01.218Z,97843.09
2022-10-22T15:18:28.607Z,97840.31
2022-10-22T15:21:08.328Z,97842.41
2022-10-22T15:23:36.601Z,97856.31
2022-10-22T15:26:03.179Z,97841.41
2022-10-22T15:28:29.737Z,97845.19
2022-10-22T15:31:00.475Z,97828.84
2022-10-22T15:33:28.952Z,97819.56
2022-10-22T15:35:56.925Z,97814.97
2022-10-22T15:38:32.514Z,97809.53
2022-10-22T15:41:05.568Z,97812.84
2022-10-22T15:43:33.356Z,97807.72
2022-10-22T15:46:12.607Z,97806.72
2022-10-22T15:48:39.782Z,97812.31
2022-10-22T15:51:12.922Z,97816.91
2022-10-22T15:53:39.799Z,97836.91
2022-10-22T15:56:06.642Z,97841.06
2022-10-22T15:58:33.485Z,97848.31
2022-10-22T16:01:14.402Z,97862.84
2022-10-22T16:03:41.842Z,97863.44
2022-10-22T16:06:09.289Z,97861.22
2022-10-22T16:08:37.095Z,97877.97
2022-10-22T16:11:04.896Z,97882.66
2022-10-22T16:13:31.607Z,97889.81
2022-10-22T16:15:58.187Z,97891.72
2022-10-22T16:18:24.893Z,97894.25
2022-10-22T16:20:51.490Z,97901.22
2022-10-22T16:23:19.071Z,97907.63
2022-10-22T16:25:46.406Z,97914.31
2022-10-22T16:28:13.597Z,97929.50
2022-10-22T16:30:40.355Z,97931.53
2022-10-22T16:33:07.659Z,97926.13
2022-10-22T16:35:34.275Z,97931.41
2022-10-22T16:38:00.826Z,97930.34
2022-10-22T16:40:29.136Z,97931.50
2022-10-22T16:42:55.706Z,97933.06
2022-10-22T16:45:22.280Z,97934.44
2022-10-22T16:47:49.243Z,97929.47
2022-10-22T16:50:15.913Z,97948.50
2022-10-22T16:52:42.501Z,97947.38
2022-10-22T16:55:09.437Z,97954.88
2022-10-22T16:57:36.041Z,97961.00
2022-10-22T17:00:05.169Z,97969.75
2022-10-22T17:02:31.802Z,97973.38
2022-10-22T17:04:58.434Z,97975.16
2022-10-22T17:07:25.019Z,97967.09
2022-10-22T17:09:51.595Z,97971.69
2022-10-22T17:12:18.164Z,97966.00
2022-10-22T17:14:44.764Z,97962.69
2022-10-22T17:17:11.316Z,97967.53
2022-10-22T17:19:38.878Z,97966.56
2022-10-22T17:22:05.696Z,97968.94
2022-10-22T17:24:32.282Z,97973.50
2022-10-22T17:26:58.918Z,97978.47
2022-10-22T17:29:25.528Z,97979.59
2022-10-22T17:31:52.613Z,97978.19
2022-10-22T17:34:19.174Z,97966.69
2022-10-22T17:36:45.909Z,97974.84
2022-10-22T17:39:18.346Z,97978.72
2022-10-22T17:41:45.903Z,97988.25
2022-10-22T17:44:13.544Z,97982.53
2022-10-22T17:46:40.183Z,97994.16
2022-10-22T17:49:15.228Z,98000.22
2022-10-22T17:51:41.811Z,98006.59
2022-10-22T17:54:09.989Z,98015.44
2022-10-22T17:56:38.802Z,98015.50
2022-10-22T17:59:06.375Z,98010.66
2022-10-22T18:01:35.836Z,98009.41
2022-10-22T18:04:05.243Z,98016.34
2022-10-22T18:06:32.335Z,98023.81
2022-10-22T18:08:59.185Z,98024.75
2022-10-22T18:11:27.671Z,98025.13
2022-10-22T18:13:56.887Z,98024.03
2022-10-22T18:16:24.607Z,98018.63
2022-10-22T18:18:54.139Z,98020.53
2022-10-22T18:21:22.317Z,98018.34
2022-10-22T18:23:49.027Z,98027.38
2022-10-22T18:26:17.882Z,98025.84
2022-10-22T18:28:45.218Z,98021.47
2022-10-22T18:31:21.706Z,98016.84
2022-10-22T18:33:48.741Z,98023.22
2022-10-22T18:36:19.146Z,98019.31
2022-10-22T18:38:54.403Z,98029.84
2022-10-22T18:41:21.896Z,98040.44
2022-10-22T18:43:52.962Z,98040.69
2022-10-22T18:46:19.949Z,98043.94
2022-10-22T18:48:47.081Z,98048.66
2022-10-22T18:51:14.681Z,98055.56
2022-10-22T18:53:42.392Z,98054.13
2022-10-22T18:56:13.207Z,98051.38
2022-10-22T18:58:41.375Z,98052.03
2022-10-22T19:01:13.322Z,98058.38
2022-10-22T19:03:40.086Z,98061.41
2022-10-22T19:06:07.066Z,98052.91
2022-10-22T19:08:35.926Z,98058.19
2022-10-22T19:11:09.853Z,98058.00
2022-10-22T19:13:36.917Z,98065.28
2022-10-22T19:16:05.749Z,98069.00
2022-10-22T19:18:32.443Z,98078.91
2022-10-22T19:21:01.349Z,98080.13
2022-10-22T19:23:32.289Z,98093.25
2022-10-22T19:26:10.013Z,98091.84
2022-10-22T19:28:38.214Z,98088.31
2022-10-22T19:31:06.426Z,98086.34
2022-10-22T19:33:37.446Z,98084.69
2022-10-22T19:36:15.067Z,98090.03
2022-10-22T19:38:47.266Z,98087.78
2022-10-22T19:41:16.262Z,98093.56
2022-10-22T19:43:44.406Z,98088.91
2022-10-22T19:46:12.230Z,98095.03
2022-10-22T19:48:39.422Z,98094.78
2022-10-22T19:51:09.371Z,98099.56
2022-10-22T19:53:38.359Z,98094.59
2022-10-22T19:56:07.323Z,98095.50
2022-10-22T19:58:34.600Z,98106.72
2022-10-22T20:01:10.348Z,98103.38
2022-10-22T20:03:37.742Z,98110.81
2022-10-22T20:06:06.341Z,98106.00
2022-10-22T20:08:35.985Z,98107.19
2022-10-22T20:11:02.886Z,98111.38
2022-10-22T20:13:29.557Z,98111.69
2022-10-22T20:15:56.875Z,98106.75
2022-10-22T20:18:23.491Z,98117.13
2022-10-22T20:20:50.131Z,98116.81
2022-10-22T20:23:17.036Z,98117.88
2022-10-22T20:25:45.836Z,98119.56
2022-10-22T20:28:14.505Z,98122.06
2022-10-22T20:30:45.437Z,98128.25
2022-10-22T20:33:15.180Z,98120.47
2022-10-22T20:35:42.238Z,98127.16
2022-10-22T20:38:13.499Z,98135.50
2022-10-22T20:40:40.406Z,98139.09
2022-10-22T20:43:09.538Z,98137.66
2022-10-22T20:45:38.389Z,98144.19
2022-10-22T20:48:05.474Z,98137.41
2022-10-22T20:50:32.620Z,98147.31
2022-10-22T20:52:59.361Z,98144.34
2022-10-22T20:55:27.176Z,98144.34
2022-10-22T20:57:53.848Z,98150.69
2022-10-22T21:00:20.700Z,98148.78
2022-10-22T21:02:47.317Z,98157.50
2022-10-22T21:05:13.902Z,98158.84
2022-10-22T21:07:40.906Z,98153.59
2022-10-22T21:10:08.094Z,98148.56
2022-10-22T21:12:34.742Z,98157.53
2022-10-22T21:15:01.380Z,98144.91
2022-10-22T21:17:28.013Z,98145.13
2022-10-22T21:19:54.559Z,98150.97
2022-10-22T21:22:21.138Z,98156.81
2022-10-22T21:24:47.696Z,98156.44
2022-10-22T21:27:14.331Z,98165.41
2022-10-22T21:29:50.424Z,98164.22
2022-10-22T21:32:16.987Z,98169.09
2022-10-22T21:34:43.632Z,98167.31
2022-10-22T21:37:10.311Z,98167.78
2022-10-22T21:39:41.165Z,98165.75
2022-10-22T21:42:08.822Z,98174.22
2022-10-22T21:44:35.445Z,98179.69
2022-10-22T21:47:02.773Z,98176.69
2022-10-22T21:49:29.337Z,98172.03
2022-10-22T21:51:55.991Z,98181.22
2022-10-22T21:54:22.543Z,98184.56
2022-10-22T21:56:50.108Z,98189.47
2022-10-22T21:59:16.705Z,98184.47
2022-10-22T22:01:43.312Z,98183.94
2022-10-22T22:04:09.927Z,98182.03
2022-10-22T22:06:36.499Z,98180.38
2022-10-22T22:09:04.242Z,98182.19
2022-10-22T22:11:31.383Z,98177.41
2022-10-22T22:13:58.394Z,98173.25
2022-10-22T22:16:29.761Z,98168.34
2022-10-22T22:18:58.764Z,98167.53
2022-10-22T22:21:25.391Z,98172.63
2022-10-22T22:23:52.279Z,98172.19
2022-10-22T22:26:25.402Z,98172.28
2022-10-22T22:28:55.563Z,98171.34
2022-10-22T22:31:25.486Z,98172.50
2022-10-22T22:34:00.146Z,98178.47
2022-10-22T22:36:27.131Z,98180.25
2022-10-22T22:38:56.132Z,98179.75
2022-10-22T22:41:23.400Z,98178.81
2022-10-22T22:43:51.004Z,98179.38
2022-10-22T22:46:17.646Z,98176.03
2022-10-22T22:48:44.431Z,98176.59
2022-10-22T22:51:11.488Z,98173.69
2022-10-22T22:53:38.125Z,98167.97
2022-10-22T22:56:10.854Z,98174.88
2022-10-22T22:58:38.813Z,98171.53
2022-10-22T23:01:32.107Z,98167.00
2022-10-22T23:04:02.761Z,98162.84
2022-10-22T23:06:32.250Z,98163.94
2022-10-22T23:08:59.668Z,98162.28
2022-10-22T23:11:27.821Z,98167.75
2022-10-22T23:13:59.945Z,98156.53
2022-10-22T23:16:29.702Z,98157.50
2022-10-22T23:18:57.291Z,98157.03
2022-10-22T23:21:26.845Z,98162.50
2022-10-22T23:23:56.898Z,98168.00
2022-10-22T23:26:26.389Z,98158.31
2022-10-22T23:28:53.023Z,98156.53
2022-10-22T23:31:21.606Z,98152.50
2022-10-22T23:33:48.859Z,98141.66
2022-10-22T23:36:15.759Z,98149.38
2022-10-22T23:38:43.373Z,98141.28
2022-10-22T23:41:10.477Z,98145.00
2022-10-22T23:43:38.326Z,98159.31
2022-10-22T23:46:10.365Z,98156.59
2022-10-22T23:48:39.239Z,98157.31
2022-10-22T23:51:14.243Z,98151.59
2022-10-22T23:53:42.499Z,98166.09
2022-10-22T23:56:15.402Z,98164.63
2022-10-22T23:58:42.864Z,98167.97
